Time;durP1;ratioP1;P1;durP2;ratioP2;P2;SDS_P1;SDS_P2;PMS_P1;PMS_P2;Temp;Humidity;BMP_temperature;BMP_pressure;BME280_temperature;BME280_humidity;BME280_pressure;Samples;Min_cycle;Max_cycle;Signal;HPM_P1;HPM_P2
2021/03/02 00:01:09;;;;;;;18.23;14.43;;;;;;;9.78;54.65;102607.22;4924085;28;97812;-62
2021/03/02 00:03:37;;;;;;;18.95;15.07;;;;;;;9.77;54.20;102613.66;4923135;28;98720;-62
2021/03/02 00:06:06;;;;;;;19.55;15.20;;;;;;;9.76;54.88;102609.31;4918176;28;98571;-62
2021/03/02 00:08:33;;;;;;;21.98;16.20;;;;;;;9.80;54.53;102615.94;4918578;28;98430;-62
2021/03/02 00:11:00;;;;;;;21.45;15.45;;;;;;;9.78;54.80;102611.78;4904990;28;99056;-62
2021/03/02 00:13:27;;;;;;;20.95;15.80;;;;;;;9.73;54.95;102606.22;4923620;28;97893;-62
2021/03/02 00:15:53;;;;;;;18.77;14.80;;;;;;;9.76;55.03;102605.81;4923883;28;97675;-62
2021/03/02 00:18:20;;;;;;;20.85;15.45;;;;;;;9.74;54.40;102611.38;4921477;28;103132;-62
2021/03/02 00:20:59;;;;;;;19.80;16.13;;;;;;;9.68;54.53;102606.84;4922602;28;99222;-62
2021/03/02 00:23:26;;;;;;;20.23;15.73;;;;;;;9.70;55.09;102601.25;4906075;28;105678;-62
2021/03/02 00:25:55;;;;;;;21.05;16.65;;;;;;;9.69;54.72;102602.28;4921484;28;98005;-62
2021/03/02 00:28:22;;;;;;;21.88;16.13;;;;;;;9.68;55.04;102595.25;4922561;28;98049;-62
2021/03/02 00:30:50;;;;;;;19.73;15.60;;;;;;;9.67;54.85;102601.66;4921227;28;98232;-62
2021/03/02 00:33:16;;;;;;;19.75;15.27;;;;;;;9.66;54.76;102598.13;4920859;28;97943;-62
2021/03/02 00:35:42;;;;;;;19.95;15.30;;;;;;;9.63;54.63;102605.81;4920889;28;113988;-62
2021/03/02 00:38:08;;;;;;;18.20;14.77;;;;;;;9.64;55.07;102604.78;4922617;28;99195;-62
2021/03/02 00:40:34;;;;;;;18.05;14.40;;;;;;;9.61;54.57;102600.66;4922282;28;120294;-62
2021/03/02 00:43:00;;;;;;;18.80;15.13;;;;;;;9.68;54.60;102597.94;4923326;28;97976;-62
2021/03/02 00:45:26;;;;;;;17.55;14.15;;;;;;;9.65;55.06;102599.19;4922956;28;98325;-62
2021/03/02 00:47:53;;;;;;;18.63;14.60;;;;;;;9.61;54.71;102600.66;4921783;28;129776;-62
2021/03/02 00:50:19;;;;;;;19.73;15.02;;;;;;;9.60;54.74;102593.59;4921666;28;126762;-62
2021/03/02 00:52:45;;;;;;;19.77;15.27;;;;;;;9.60;55.15;102585.53;4904893;28;105285;-62
2021/03/02 00:55:11;;;;;;;18.50;14.52;;;;;;;9.60;54.84;102588.22;4920054;28;116863;-62
2021/03/02 00:57:38;;;;;;;18.40;14.52;;;;;;;9.57;54.65;102594.84;4920951;28;126668;-62
2021/03/02 01:00:05;;;;;;;18.27;14.10;;;;;;;9.52;54.66;102593.81;4922406;28;99217;-62
2021/03/02 01:02:31;;;;;;;19.35;14.27;;;;;;;9.50;55.28;102585.94;4919992;28;118231;-62
2021/03/02 01:04:57;;;;;;;19.08;14.20;;;;;;;9.54;55.39;102586.34;4903544;28;115930;-62
2021/03/02 01:07:23;;;;;;;17.40;13.50;;;;;;;9.49;55.06;102588.84;4919999;28;128005;-62
2021/03/02 01:09:49;;;;;;;18.48;14.23;;;;;;;9.49;54.84;102580.78;4919365;28;127958;-62
2021/03/02 01:12:15;;;;;;;16.70;14.15;;;;;;;9.44;55.17;102578.72;4933212;28;121699;-62
2021/03/02 01:14:42;;;;;;;18.80;13.80;;;;;;;9.47;54.52;102577.44;4902699;28;117993;-62
2021/03/02 01:17:08;;;;;;;17.48;14.02;;;;;;;9.37;55.32;102569.81;4900315;28;127266;-62
2021/03/02 01:19:34;;;;;;;18.63;14.40;;;;;;;9.40;54.78;102574.78;4933663;28;109880;-62
2021/03/02 01:22:00;;;;;;;19.00;14.35;;;;;;;9.40;54.84;102574.78;4902478;28;112012;-62
2021/03/02 01:24:26;;;;;;;19.17;14.27;;;;;;;9.38;55.02;102574.16;4902028;28;118570;-62
2021/03/02 01:26:52;;;;;;;18.85;14.45;;;;;;;9.37;54.82;102569.81;4909679;28;127429;-62
2021/03/02 01:29:18;;;;;;;19.58;14.77;;;;;;;9.38;54.41;102571.47;4919522;28;127515;-62
2021/03/02 01:31:44;;;;;;;19.65;14.65;;;;;;;9.38;54.82;102573.31;4921162;28;128387;-62
2021/03/02 01:34:10;;;;;;;18.67;14.75;;;;;;;9.42;54.04;102570.00;4922340;28;98938;-62
2021/03/02 01:36:36;;;;;;;18.50;13.60;;;;;;;9.42;54.65;102564.63;4921880;28;127989;-62
2021/03/02 01:39:03;;;;;;;17.77;13.68;;;;;;;9.46;54.35;102567.72;4919733;28;127912;-62
2021/03/02 01:41:29;;;;;;;17.05;13.23;;;;;;;9.46;54.34;102565.03;4921678;28;116270;-62
2021/03/02 01:43:55;;;;;;;17.48;13.40;;;;;;;9.44;54.69;102567.13;4919765;28;116964;-62
2021/03/02 01:46:21;;;;;;;18.02;13.77;;;;;;;9.47;54.46;102562.16;4922257;28;98581;-62
2021/03/02 01:48:47;;;;;;;14.70;12.35;;;;;;;9.45;54.06;102560.69;4904124;28;127669;-62
2021/03/02 01:51:13;;;;;;;17.98;13.20;;;;;;;9.45;53.95;102558.81;4919492;28;126401;-62
2021/03/02 01:53:39;;;;;;;17.25;12.73;;;;;;;9.47;53.92;102554.06;4919846;28;97855;-63
2021/03/02 01:56:05;;;;;;;15.27;12.13;;;;;;;9.47;53.90;102562.16;4919242;28;127220;-62
2021/03/02 01:58:32;;;;;;;16.33;12.55;;;;;;;9.48;53.88;102553.03;4903304;28;99758;-62
2021/03/02 02:01:03;;;;;;;17.02;12.20;;;;;;;9.49;53.64;102553.84;4919757;28;100246;-62
2021/03/02 02:03:46;;;;;;;16.55;12.07;;;;;;;9.42;54.09;102553.84;4925822;28;97977;-62
2021/03/02 02:06:13;;;;;;;;;;;;;;;9.41;53.89;102551.38;4923419;28;98837;-62
2021/03/02 02:08:53;;;;;;;17.13;11.98;;;;;;;9.33;53.37;102555.13;4923328;28;113235;-62
2021/03/02 02:11:58;;;;;;;16.25;11.98;;;;;;;9.40;54.19;102555.13;4923030;28;98760;-62
2021/03/02 02:14:54;;;;;;;15.75;12.35;;;;;;;9.33;53.90;102547.88;4937506;28;97980;-62
2021/03/02 02:17:48;;;;;;;14.60;11.70;;;;;;;9.35;53.55;102558.41;4890605;28;98521;-62
2021/03/02 02:20:46;;;;;;;15.13;11.45;;;;;;;9.31;53.50;102554.47;4925335;28;98661;-62
2021/03/02 02:23:30;;;;;;;15.68;12.05;;;;;;;9.30;54.31;102542.88;4922703;28;98657;-62
2021/03/02 02:26:42;;;;;;;14.60;10.88;;;;;;;9.30;53.73;102548.28;4925038;28;97657;-63
2021/03/02 02:29:08;;;;;;;15.60;11.30;;;;;;;9.31;53.55;102546.41;4903730;28;98496;-62
2021/03/02 02:31:34;;;;;;;13.60;11.27;;;;;;;9.31;53.69;102547.25;4904755;28;128863;-62
2021/03/02 02:34:00;;;;;;;14.75;11.15;;;;;;;9.34;54.07;102551.38;4919518;28;97996;-62
2021/03/02 02:36:26;;;;;;;14.15;10.80;;;;;;;9.33;53.87;102550.56;4903309;28;116639;-62
2021/03/02 02:38:58;;;;;;;13.93;11.18;;;;;;;9.30;53.86;102550.97;4901795;28;125934;-62
2021/03/02 02:41:24;;;;;;;13.85;11.27;;;;;;;9.32;53.23;102546.22;4902705;28;125582;-62
2021/03/02 02:43:51;;;;;;;13.32;10.75;;;;;;;9.33;53.43;102544.34;4918351;28;128259;-62
2021/03/02 02:46:18;;;;;;;13.68;10.48;;;;;;;9.34;54.33;102546.00;4903093;28;117117;-62
2021/03/02 02:48:44;;;;;;;13.55;10.55;;;;;;;9.32;54.33;102548.91;4919584;28;98676;-62
2021/03/02 02:51:10;;;;;;;13.52;10.43;;;;;;;9.28;53.95;102547.66;4910748;28;127930;-62
2021/03/02 02:53:36;;;;;;;13.18;10.07;;;;;;;9.30;53.93;102545.59;4922788;28;97752;-62
2021/03/02 02:56:03;;;;;;;12.63;10.40;;;;;;;9.27;54.17;102548.69;4938511;28;118295;-62
2021/03/02 02:58:43;;;;;;;11.73;9.88;;;;;;;9.25;54.24;102548.09;4922465;28;98677;-62
2021/03/02 03:01:10;;;;;;;12.57;10.02;;;;;;;9.27;54.00;102546.00;4921495;28;121518;-62
2021/03/02 03:03:36;;;;;;;11.82;10.10;;;;;;;9.24;53.92;102541.06;4905817;28;114098;-62
2021/03/02 03:06:05;;;;;;;12.00;10.23;;;;;;;9.26;54.57;102543.53;4921430;28;117703;-62
2021/03/02 03:08:32;;;;;;;13.57;10.13;;;;;;;9.26;54.42;102552.41;4922490;28;98350;-62
2021/03/02 03:11:00;;;;;;;15.18;11.23;;;;;;;9.26;53.85;102546.22;4906684;28;98037;-62
2021/03/02 03:13:29;;;;;;;12.15;9.95;;;;;;;9.19;53.80;102551.59;4921027;28;103668;-62
2021/03/02 03:16:01;;;;;;;12.50;9.35;;;;;;;9.20;54.39;102549.75;4923001;28;98958;-62
2021/03/02 03:18:31;;;;;;;10.05;7.85;;;;;;;9.23;54.37;102549.31;4906286;28;98613;-62
2021/03/02 03:20:59;;;;;;;12.10;9.75;;;;;;;9.21;53.50;102557.59;4921280;28;123370;-62
2021/03/02 03:23:25;;;;;;;12.80;9.85;;;;;;;9.20;53.71;102547.88;4938108;28;99487;-62
2021/03/02 03:25:51;;;;;;;12.30;10.18;;;;;;;9.21;53.84;102552.22;4938761;28;97845;-62
2021/03/02 03:28:17;;;;;;;12.75;10.18;;;;;;;9.22;53.70;102550.34;4922965;28;128680;-62
2021/03/02 03:30:43;;;;;;;13.38;10.20;;;;;;;9.19;53.49;102556.97;4920392;28;125843;-62
2021/03/02 03:33:11;;;;;;;11.63;9.60;;;;;;;9.18;54.18;102559.88;4953958;28;125643;-62
2021/03/02 03:35:39;;;;;;;12.38;9.68;;;;;;;9.20;54.22;102560.53;4923907;28;97883;-62
2021/03/02 03:38:06;;;;;;;13.00;9.90;;;;;;;9.18;53.90;102558.03;4937563;28;106826;-62
2021/03/02 03:40:32;;;;;;;12.57;9.93;;;;;;;9.18;53.88;102560.72;4923312;28;101053;-62
2021/03/02 03:42:58;;;;;;;11.40;9.45;;;;;;;9.18;53.86;102558.03;4936514;28;121103;-62
2021/03/02 03:45:24;;;;;;;11.70;9.50;;;;;;;9.19;54.21;102564.22;4923829;28;117061;-62
2021/03/02 03:47:50;;;;;;;11.13;9.20;;;;;;;9.10;53.49;102559.06;4921020;28;128193;-62
2021/03/02 03:50:16;;;;;;;11.85;9.40;;;;;;;9.12;53.63;102549.94;4904008;28;127593;-62
2021/03/02 03:52:48;;;;;;;11.88;9.23;;;;;;;9.10;53.58;102564.44;4889074;28;98047;-62
2021/03/02 03:55:16;;;;;;;11.57;9.10;;;;;;;9.09;53.94;102551.19;4921232;28;108988;-62
2021/03/02 03:57:42;;;;;;;11.80;9.63;;;;;;;9.13;54.13;102546.22;4906276;28;98863;-62
2021/03/02 04:00:09;;;;;;;11.73;9.55;;;;;;;9.09;54.31;102554.72;4904457;28;128327;-62
2021/03/02 04:02:35;;;;;;;11.70;9.73;;;;;;;9.10;53.95;102547.47;4888914;28;121679;-62
2021/03/02 04:05:03;;;;;;;12.07;9.60;;;;;;;9.05;54.08;102544.56;4920974;28;115739;-62
2021/03/02 04:07:29;;;;;;;12.23;9.25;;;;;;;9.08;53.85;102538.78;4905176;28;111040;-62
2021/03/02 04:09:55;;;;;;;10.18;8.82;;;;;;;9.03;53.47;102534.00;4905093;28;98924;-62
2021/03/02 04:12:21;;;;;;;11.57;9.73;;;;;;;9.05;54.03;102536.50;4904944;28;111163;-62
2021/03/02 04:14:47;;;;;;;11.75;9.55;;;;;;;9.05;53.93;102536.50;4920361;28;115164;-62
2021/03/02 04:17:13;;;;;;;12.23;9.32;;;;;;;9.03;53.86;102536.69;4904547;28;115391;-62
2021/03/02 04:19:40;;;;;;;11.50;9.43;;;;;;;9.02;54.19;102536.91;4952781;28;127305;-62
2021/03/02 04:22:06;;;;;;;11.10;9.02;;;;;;;8.99;53.57;102540.84;4904388;28;126886;-62
2021/03/02 04:24:32;;;;;;;11.75;9.68;;;;;;;9.04;53.64;102549.13;4920427;28;105798;-62
2021/03/02 04:26:58;;;;;;;11.23;9.13;;;;;;;8.98;53.67;102549.94;4935977;28;128182;-62
2021/03/02 04:29:24;;;;;;;11.93;9.50;;;;;;;8.99;54.29;102554.28;4920204;28;128589;-62
2021/03/02 04:31:50;;;;;;;12.30;9.32;;;;;;;8.96;53.64;102554.72;4922467;28;125632;-62
2021/03/02 04:34:16;;;;;;;11.65;9.25;;;;;;;8.96;54.47;102546.66;4922371;28;117020;-62
2021/03/02 04:36:42;;;;;;;11.80;9.13;;;;;;;8.99;53.67;102551.59;4921819;28;128299;-62
2021/03/02 04:39:08;;;;;;;11.23;9.45;;;;;;;8.98;54.00;102555.31;4920154;28;97937;-62
2021/03/02 04:41:35;;;;;;;11.27;8.55;;;;;;;8.98;54.05;102562.56;4953250;28;119488;-62
2021/03/02 04:44:01;;;;;;;10.07;8.63;;;;;;;8.96;53.81;102570.00;4921892;28;118614;-62
2021/03/02 04:46:27;;;;;;;10.50;8.77;;;;;;;8.95;53.70;102573.72;4952742;28;119630;-62
2021/03/02 04:48:53;;;;;;;11.48;9.27;;;;;;;8.95;53.42;102569.19;4920056;28;127449;-62
2021/03/02 04:51:19;;;;;;;10.60;8.77;;;;;;;8.97;53.69;102572.50;4920146;28;127945;-62
2021/03/02 04:53:46;;;;;;;11.05;9.10;;;;;;;8.93;53.70;102570.44;4921002;28;117739;-62
2021/03/02 04:56:12;;;;;;;11.57;9.02;;;;;;;8.91;53.41;102564.41;4921894;28;98270;-62
2021/03/02 04:58:38;;;;;;;11.57;9.70;;;;;;;8.89;53.60;102564.63;4922034;28;128566;-62
2021/03/02 05:01:04;;;;;;;11.05;8.90;;;;;;;8.90;53.47;102571.66;4921828;28;127348;-62
2021/03/02 05:03:30;;;;;;;11.68;9.43;;;;;;;8.88;54.02;102562.97;4919369;28;117922;-62
2021/03/02 05:05:56;;;;;;;10.98;9.27;;;;;;;8.85;53.82;102558.84;4921539;28;127281;-62
2021/03/02 05:08:22;;;;;;;11.57;9.35;;;;;;;8.80;53.69;102561.31;4922106;28;118014;-62
2021/03/02 05:10:48;;;;;;;11.18;8.85;;;;;;;8.80;53.94;102555.94;4919837;28;127646;-62
2021/03/02 05:13:14;;;;;;;11.05;9.05;;;;;;;8.80;53.84;102557.78;4921827;28;113659;-62
2021/03/02 05:15:40;;;;;;;11.05;8.73;;;;;;;8.78;54.04;102558.00;4936473;28;98568;-62
2021/03/02 05:18:06;;;;;;;11.18;8.77;;;;;;;8.84;54.04;102564.41;4937062;28;98462;-62
2021/03/02 05:20:32;;;;;;;10.10;8.23;;;;;;;8.77;54.14;102567.09;4922011;28;119822;-62
2021/03/02 05:22:58;;;;;;;10.93;8.57;;;;;;;8.79;54.17;102570.41;4923303;28;103568;-62
2021/03/02 05:25:25;;;;;;;9.75;8.07;;;;;;;8.76;54.05;102568.16;4921663;28;127835;-63
2021/03/02 05:27:51;;;;;;;11.18;8.85;;;;;;;8.78;53.44;102565.25;4921574;28;126800;-62
2021/03/02 05:30:17;;;;;;;10.55;8.57;;;;;;;8.79;54.19;102570.41;4921512;28;128463;-62
2021/03/02 05:32:43;;;;;;;10.20;8.30;;;;;;;8.80;54.28;102564.00;4921607;28;108303;-62
2021/03/02 05:35:10;;;;;;;11.52;8.75;;;;;;;8.77;53.68;102577.03;4920399;28;128730;-62
2021/03/02 05:37:36;;;;;;;11.25;8.90;;;;;;;8.76;53.82;102564.59;4924603;28;99231;-62
2021/03/02 05:40:03;;;;;;;10.48;8.60;;;;;;;8.79;53.65;102565.03;4924691;28;128043;-62
2021/03/02 05:42:29;;;;;;;11.68;8.98;;;;;;;8.80;53.83;102558.63;4925059;28;110314;-62
2021/03/02 05:44:55;;;;;;;9.80;8.05;;;;;;;8.76;53.79;102559.22;4906503;28;127447;-62
2021/03/02 05:47:21;;;;;;;10.68;8.55;;;;;;;8.79;53.76;102564.19;4906802;28;127514;-62
2021/03/02 05:49:47;;;;;;;11.05;8.88;;;;;;;8.75;53.97;102557.56;4907410;28;98174;-62
2021/03/02 05:52:14;;;;;;;10.05;8.52;;;;;;;8.75;54.20;102563.78;4906875;28;114188;-62
2021/03/02 05:54:40;;;;;;;11.80;8.85;;;;;;;8.76;53.42;102569.97;4906243;28;125804;-62
2021/03/02 05:57:06;;;;;;;9.50;8.18;;;;;;;8.78;53.69;102565.25;4923027;28;99029;-62
2021/03/02 05:59:33;;;;;;;10.43;8.63;;;;;;;8.79;53.88;102565.03;4922315;28;118090;-62
2021/03/02 06:01:59;;;;;;;9.82;7.32;;;;;;;8.77;53.97;102567.09;4923132;28;110022;-62
2021/03/02 06:04:26;;;;;;;9.63;7.78;;;;;;;8.80;53.62;102560.47;4905995;28;123699;-62
2021/03/02 06:07:00;;;;;;;9.23;7.65;;;;;;;8.81;53.32;102571.03;4925299;28;98703;-62
2021/03/02 06:09:26;;;;;;;9.00;7.57;;;;;;;8.83;53.90;102568.97;4922352;28;114887;-62
2021/03/02 06:12:01;;;;;;;8.88;7.18;;;;;;;8.82;53.98;102569.19;4924861;28;116067;-62
2021/03/02 06:14:28;;;;;;;8.90;7.10;;;;;;;8.83;53.74;102570.81;4925004;28;98958;-62
2021/03/02 06:16:55;;;;;;;8.65;7.05;;;;;;;8.83;53.50;102571.66;4925071;28;99123;-62
2021/03/02 06:19:39;;;;;;;8.35;6.72;;;;;;;8.86;54.28;102575.81;4925044;28;98373;-62
2021/03/02 06:22:05;;;;;;;7.97;6.95;;;;;;;8.92;53.51;102582.22;4925279;28;97952;-62
2021/03/02 06:24:38;;;;;;;9.57;7.03;;;;;;;8.89;53.78;102574.56;4925272;28;98273;-62
2021/03/02 06:27:12;;;;;;;8.18;6.70;;;;;;;8.93;53.99;102576.66;4925025;28;99278;-62
2021/03/02 06:29:39;;;;;;;7.80;6.60;;;;;;;8.99;54.63;102577.66;4905253;28;98145;-62
2021/03/02 06:32:06;;;;;;;8.70;7.15;;;;;;;9.00;54.41;102585.56;4903999;28;98256;-62
2021/03/02 06:34:32;;;;;;;7.95;6.55;;;;;;;9.03;54.53;102573.53;4902704;28;98189;-62
2021/03/02 06:37:01;;;;;;;8.57;6.60;;;;;;;9.02;54.61;102577.25;4905622;28;100210;-62
2021/03/02 06:39:42;;;;;;;8.18;6.85;;;;;;;9.04;54.89;102576.03;4910234;28;98153;-62
2021/03/02 06:42:19;;;;;;;7.97;6.93;;;;;;;9.07;55.16;102572.91;4923540;28;98163;-62
2021/03/02 06:44:52;;;;;;;7.70;6.53;;;;;;;9.12;55.48;102571.47;4907002;28;98951;-62
2021/03/02 06:47:39;;;;;;;7.90;6.70;;;;;;;9.15;55.25;102579.94;4922736;28;99418;-62
2021/03/02 06:50:12;;;;;;;8.05;6.53;;;;;;;9.17;55.58;102583.28;4922926;28;97925;-62
2021/03/02 06:52:40;;;;;;;8.20;6.88;;;;;;;9.22;55.70;102583.47;4925431;28;97822;-63
2021/03/02 06:55:23;;;;;;;7.35;6.57;;;;;;;9.27;55.74;102585.53;4924575;28;98569;-62
2021/03/02 06:57:50;;;;;;;7.53;6.65;;;;;;;9.33;55.12;102584.72;4922749;28;98318;-63
2021/03/02 07:00:29;;;;;;;7.80;6.75;;;;;;;9.35;55.49;102579.94;4924602;28;98345;-62
2021/03/02 07:02:55;;;;;;;7.53;6.50;;;;;;;9.42;55.90;102586.16;4925291;28;97876;-62
2021/03/02 07:05:21;;;;;;;7.20;6.32;;;;;;;9.48;55.63;102584.50;4922957;28;128321;-62
2021/03/02 07:07:54;;;;;;;7.70;6.50;;;;;;;9.57;55.71;102584.06;4923762;28;128557;-62
2021/03/02 07:10:21;;;;;;;6.97;6.15;;;;;;;9.65;55.60;102591.09;4924274;28;97883;-62
2021/03/02 07:12:47;;;;;;;8.20;6.35;;;;;;;9.67;55.90;102583.66;4924848;28;97925;-62
2021/03/02 07:15:17;;;;;;;7.25;6.13;;;;;;;9.75;55.92;102586.13;4923958;28;97986;-62
2021/03/02 07:17:44;;;;;;;8.00;6.78;;;;;;;9.85;55.19;102593.75;4924085;28;98671;-62
2021/03/02 07:20:12;;;;;;;6.53;5.80;;;;;;;9.90;55.26;102595.81;4923965;28;98251;-62
2021/03/02 07:22:39;;;;;;;7.68;6.18;;;;;;;9.95;55.10;102596.03;4921039;28;108922;-62
2021/03/02 07:25:09;;;;;;;7.60;6.57;;;;;;;10.00;56.13;102593.50;4923724;28;99428;-63
2021/03/02 07:27:42;;;;;;;7.88;6.43;;;;;;;10.03;55.90;102606.56;4924835;28;98508;-62
2021/03/02 07:30:12;;;;;;;7.22;6.53;;;;;;;10.12;55.97;102597.19;4905788;28;97980;-62
2021/03/02 07:32:39;;;;;;;8.57;6.85;;;;;;;10.20;55.45;102598.84;4923884;28;113087;-62
2021/03/02 07:35:10;;;;;;;7.47;6.45;;;;;;;10.26;55.36;102588.06;4921271;28;105119;-62
2021/03/02 07:37:36;;;;;;;8.40;6.47;;;;;;;10.43;55.39;102592.97;4906077;28;98068;-62
2021/03/02 07:40:11;;;;;;;7.85;6.72;;;;;;;10.50;55.85;102601.84;4922960;28;104808;-62
2021/03/02 07:42:37;;;;;;;7.70;6.47;;;;;;;10.60;55.25;102595.97;4923167;28;114518;-62
2021/03/02 07:45:12;;;;;;;7.13;6.30;;;;;;;10.71;55.02;102601.53;4922961;28;121040;-63
2021/03/02 07:47:48;;;;;;;8.10;6.90;;;;;;;10.76;54.49;102599.00;4923918;28;98459;-62
2021/03/02 07:50:24;;;;;;;7.57;6.43;;;;;;;10.85;55.33;102607.69;4923544;28;98674;-62
2021/03/02 07:53:24;;;;;;;8.20;7.25;;;;;;;10.97;54.97;102597.00;4922337;28;99134;-62
2021/03/02 07:56:21;;;;;;;8.45;7.00;;;;;;;11.07;55.26;102600.84;4923733;28;98506;-62
2021/03/02 07:59:10;;;;;;;7.38;6.57;;;;;;;11.16;54.63;102604.13;4921692;28;98436;-62
2021/03/02 08:01:36;;;;;;;8.85;6.93;;;;;;;11.16;55.36;102614.06;4919614;28;98108;-63
2021/03/02 08:04:14;;;;;;;7.90;7.10;;;;;;;11.26;55.46;102611.72;4905332;28;100616;-62
2021/03/02 08:06:44;;;;;;;7.90;7.10;;;;;;;11.29;55.18;102612.13;4922629;28;98586;-62
2021/03/02 08:09:30;;;;;;;9.35;7.65;;;;;;;11.33;55.48;102614.38;4922808;28;98815;-62
2021/03/02 08:12:29;;;;;;;10.40;7.93;;;;;;;11.35;55.73;102614.97;4923322;28;97715;-62
2021/03/02 08:14:56;;;;;;;8.32;7.07;;;;;;;11.40;55.34;102615.97;4923648;28;97764;-62
2021/03/02 08:17:22;;;;;;;8.90;8.00;;;;;;;11.50;55.22;102612.78;4923397;28;98614;-64
2021/03/02 08:19:49;;;;;;;8.88;7.97;;;;;;;11.54;55.28;102614.81;4904729;28;100286;-62
2021/03/02 08:22:18;;;;;;;11.25;8.07;;;;;;;11.52;55.46;102613.38;4923711;28;98009;-62
2021/03/02 08:24:51;;;;;;;8.50;7.70;;;;;;;11.51;55.54;102614.41;4923575;28;97920;-62
2021/03/02 08:27:52;;;;;;;9.57;8.50;;;;;;;11.54;55.14;102620.19;4920680;28;111417;-62
2021/03/02 08:30:28;;;;;;;8.88;7.82;;;;;;;11.64;55.55;102608.91;4923621;28;98440;-62
2021/03/02 08:32:56;;;;;;;9.75;8.27;;;;;;;11.72;55.10;102614.03;4923048;28;98209;-62
2021/03/02 08:35:31;;;;;;;8.85;7.95;;;;;;;11.76;55.70;102614.41;4923104;28;98031;-62
2021/03/02 08:38:05;;;;;;;8.75;7.80;;;;;;;11.89;54.98;102616.16;4922769;28;98384;-62
2021/03/02 08:40:31;;;;;;;9.00;8.00;;;;;;;11.95;54.90;102609.88;4922378;28;98338;-63
2021/03/02 08:43:14;;;;;;;9.23;8.18;;;;;;;12.04;55.01;102603.94;4954110;28;97886;-63
2021/03/02 08:45:55;;;;;;;9.40;8.35;;;;;;;12.09;54.99;102603.25;4923369;28;97897;-62
2021/03/02 08:48:32;;;;;;;9.27;8.02;;;;;;;12.16;54.61;102604.00;4921902;28;126130;-62
2021/03/02 08:51:01;;;;;;;10.02;8.45;;;;;;;12.20;54.52;102601.69;4922286;28;99329;-63
2021/03/02 08:53:40;;;;;;;9.25;8.00;;;;;;;12.36;54.20;102594.81;4921196;28;98079;-62
2021/03/02 08:56:21;;;;;;;8.60;7.72;;;;;;;12.53;54.29;102599.34;4922222;28;97695;-63
2021/03/02 08:58:53;;;;;;;10.05;8.70;;;;;;;12.60;54.13;102596.56;4920418;28;98187;-63
2021/03/02 09:01:21;;;;;;;9.63;8.63;;;;;;;12.69;54.31;102589.81;4922556;28;99330;-63
2021/03/02 09:03:47;;;;;;;10.02;8.85;;;;;;;12.81;54.03;102591.69;4922224;28;98154;-63
2021/03/02 09:06:26;;;;;;;9.15;8.23;;;;;;;12.99;54.14;102588.91;4922006;28;113662;-63
2021/03/02 09:09:00;;;;;;;9.57;8.57;;;;;;;13.14;53.66;102592.00;4920650;28;98525;-63
2021/03/02 09:11:32;;;;;;;9.63;8.63;;;;;;;13.26;53.57;102601.00;4922455;28;98598;-63
2021/03/02 09:14:00;;;;;;;9.80;8.80;;;;;;;13.28;53.65;102592.63;4923489;28;97814;-63
2021/03/02 09:16:34;;;;;;;10.30;9.13;;;;;;;13.41;53.55;102599.72;4922719;28;98014;-63
2021/03/02 09:19:06;;;;;;;9.93;8.93;;;;;;;13.48;53.66;102598.56;4920185;28;99022;-63
2021/03/02 09:21:32;;;;;;;10.38;9.38;;;;;;;13.56;53.52;102593.81;4920145;28;98378;-63
2021/03/02 09:23:59;;;;;;;10.70;9.65;;;;;;;13.63;53.63;102599.97;4922449;28;97923;-63
2021/03/02 09:26:27;;;;;;;11.07;9.98;;;;;;;13.79;53.50;102595.69;4922974;28;98015;-63
2021/03/02 09:28:54;;;;;;;10.75;9.75;;;;;;;13.81;54.02;102588.16;4922241;28;98980;-63
2021/03/02 09:31:20;;;;;;;11.65;10.55;;;;;;;14.05;53.29;102591.66;4922264;28;98823;-63
2021/03/02 09:33:49;;;;;;;15.60;14.10;;;;;;;14.14;53.29;102591.03;4920972;28;98180;-63
2021/03/02 09:36:16;;;;;;;17.13;15.40;;;;;;;14.33;52.97;102591.69;4904866;28;103953;-63
2021/03/02 09:38:42;;;;;;;16.60;14.90;;;;;;;14.60;52.41;102585.72;4920503;28;98289;-63
2021/03/02 09:41:08;;;;;;;16.65;14.95;;;;;;;14.81;52.41;102576.03;4921755;28;102604;-63
2021/03/02 09:43:38;;;;;;;15.65;14.05;;;;;;;15.20;51.69;102579.69;4922043;28;98187;-63
2021/03/02 09:46:05;;;;;;;14.93;13.52;;;;;;;16.18;50.10;102575.38;4921593;28;98041;-63
2021/03/02 09:48:47;;;;;;;13.95;12.65;;;;;;;18.86;44.62;102561.25;4922303;28;99342;-64
2021/03/02 09:51:33;;;;;;;13.30;12.00;;;;;;;20.80;41.84;102566.91;4922215;28;105753;-64
2021/03/02 09:54:17;;;;;;;12.48;11.38;;;;;;;22.20;40.50;102565.16;4921451;28;112444;-64
2021/03/02 09:56:54;;;;;;;11.95;10.77;;;;;;;21.51;42.10;102576.41;4922843;28;98066;-64
2021/03/02 09:59:24;;;;;;;12.13;11.02;;;;;;;22.03;41.50;102573.88;4921438;28;110282;-64
2021/03/02 10:01:50;;;;;;;12.55;11.40;;;;;;;23.62;38.57;102567.50;4921696;28;99379;-64
2021/03/02 10:04:17;;;;;;;11.52;10.52;;;;;;;25.87;34.95;102573.94;4922358;28;98197;-64
2021/03/02 10:06:43;;;;;;;10.80;9.80;;;;;;;27.50;33.18;102584.41;4922794;28;97960;-64
2021/03/02 10:09:25;;;;;;;10.05;9.15;;;;;;;29.06;31.04;102593.63;4921941;28;106859;-65
2021/03/02 10:12:11;;;;;;;9.32;8.43;;;;;;;30.27;29.64;102586.50;4922179;28;98636;-65
2021/03/02 10:14:41;;;;;;;8.70;8.00;;;;;;;31.09;28.53;102595.53;4920993;28;109399;-65
2021/03/02 10:17:07;;;;;;;8.55;7.85;;;;;;;31.78;27.96;102594.91;4921690;28;97890;-65
2021/03/02 10:19:34;;;;;;;8.80;8.10;;;;;;;32.49;27.16;102594.91;4922061;28;98337;-65
2021/03/02 10:22:02;;;;;;;8.05;7.45;;;;;;;33.31;26.43;102601.28;4919206;28;113497;-65
2021/03/02 10:24:38;;;;;;;7.82;7.28;;;;;;;33.59;25.89;102595.38;4924920;28;98124;-65
2021/03/02 10:27:14;;;;;;;7.47;6.95;;;;;;;33.63;25.92;102594.22;4925216;28;98757;-65
2021/03/02 10:29:41;;;;;;;7.63;7.03;;;;;;;33.32;26.76;102588.91;4924728;28;98871;-65
2021/03/02 10:32:07;;;;;;;7.22;6.72;;;;;;;33.84;25.58;102590.13;4923464;28;98066;-65
2021/03/02 10:34:36;;;;;;;7.18;6.65;;;;;;;34.25;25.28;102582.75;4923399;28;127338;-65
2021/03/02 10:37:03;;;;;;;6.85;6.35;;;;;;;34.67;24.82;102573.28;4925492;28;98061;-65
2021/03/02 10:39:29;;;;;;;6.75;6.25;;;;;;;34.55;24.86;102570.75;4924396;28;98990;-65
2021/03/02 10:41:55;;;;;;;6.60;6.10;;;;;;;34.81;25.05;102573.41;4924017;28;125888;-65
2021/03/02 10:44:21;;;;;;;6.28;5.78;;;;;;;35.02;24.69;102570.06;4955108;28;127475;-65
2021/03/02 10:46:47;;;;;;;6.75;6.20;;;;;;;35.24;24.71;102559.81;4940148;28;98114;-65
2021/03/02 10:49:13;;;;;;;6.63;6.13;;;;;;;35.40;24.58;102557.53;4922433;28;98981;-65
2021/03/02 10:51:39;;;;;;;7.05;6.45;;;;;;;35.34;24.86;102556.31;4924010;28;119704;-65
2021/03/02 10:54:06;;;;;;;6.55;6.05;;;;;;;35.07;25.51;102552.09;4924590;28;99360;-65
2021/03/02 10:56:32;;;;;;;6.80;6.30;;;;;;;34.83;25.36;102553.44;4939587;28;98199;-65
2021/03/02 10:58:58;;;;;;;6.60;6.10;;;;;;;34.69;25.78;102542.91;4920991;28;126778;-65
2021/03/02 11:01:24;;;;;;;6.53;6.03;;;;;;;34.07;26.89;102548.94;4924186;28;98484;-65
2021/03/02 11:03:51;;;;;;;6.50;6.00;;;;;;;33.56;28.04;102538.22;4923814;28;118381;-65
2021/03/02 11:06:19;;;;;;;6.82;6.30;;;;;;;32.72;28.83;102539.97;4923989;28;116663;-65
2021/03/02 11:08:45;;;;;;;6.70;6.10;;;;;;;32.34;29.65;102532.41;4905866;28;121870;-65
2021/03/02 11:11:12;;;;;;;6.90;6.32;;;;;;;32.14;29.95;102520.44;4924035;28;98159;-65
2021/03/02 11:13:39;;;;;;;6.75;6.25;;;;;;;31.86;30.77;102520.66;4922869;28;127256;-65
2021/03/02 11:16:05;;;;;;;6.43;5.82;;;;;;;31.64;31.00;102516.56;4924636;28;107374;-65
2021/03/02 11:18:32;;;;;;;6.25;5.75;;;;;;;31.47;31.61;102509.41;4921848;28;127835;-65
2021/03/02 11:20:58;;;;;;;6.18;5.68;;;;;;;31.36;31.79;102508.38;4924247;28;98656;-65
2021/03/02 11:23:24;;;;;;;6.05;5.55;;;;;;;31.38;31.80;102508.78;4921503;28;128548;-65
2021/03/02 11:25:50;;;;;;;6.65;6.05;;;;;;;31.21;32.46;102495.22;4923595;28;97921;-64
2021/03/02 11:28:16;;;;;;;6.07;5.60;;;;;;;31.18;32.12;102490.38;4923352;28;128341;-65
2021/03/02 11:30:42;;;;;;;6.32;5.82;;;;;;;31.07;32.43;102492.88;4924091;28;111031;-65